Akron Fulton International Airport Akron US
ICAO: KAKR
IATA: AKC
Category: Medium
Scheduled Services: No

Elevation: 1067 ft
TransAlt. 18000 ft.

Airport Communications:
APP/DEP:118.6
ASOS:126.825
CTAF/UNICOM:123.075
CLEVELAND RDO:114.4

KAKR Zoom In..

If you have problems with the map follow the link
https://www.worldairports.se/pages/airport.php?
ICAO=KAKR

Runways:

(A) RW 01 length 2337 ft width 100 ft
LOC 110.90 / hdg 8

(B) RW 07 length 6336 ft width 150 ft
LOC 110.90 / hdg 69

(C) RW 19 length 2337 ft width 100 ft
LOC 110.90 / hdg 188

(D) RW 25 length 6336 ft width 150 ft
LOC 110.90 / hdg 249

Location; KAKR
Day. 08 / Time. 22.54 Zulu
* Altimeter: 30.04
* Temperature: 10° c. 50°f.
* Wind from: 170° Speed 10 kn.
Dewpoint: 02° c.
Visibility: 10 Statute Miles.
Clouds: Few 3800 ft.
Clouds: Overcast 6500 ft.

KAKR 082254Z AUTO 17010KT 10SM FEW038 OVC065 10/02 A3004 RMK AO2 SLP177 T01000022 $


Wind From 170°
Speed 10 kn.

 
 
jpsmedia worldairports.se 2019   terms of use